createdAt,value
2024-03-02T00:06:01.700Z,29.80
2024-03-02T00:14:25.730Z,27.20
2024-03-02T00:22:51.367Z,30.00
2024-03-02T00:31:15.601Z,27.60
2024-03-02T00:39:38.814Z,29.30
2024-03-02T00:48:01.891Z,27.60
2024-03-02T00:56:26.204Z,28.50
2024-03-02T01:04:49.280Z,29.50
2024-03-02T01:13:12.784Z,29.10
2024-03-02T01:21:36.022Z,27.20
2024-03-02T01:30:00.996Z,29.00
2024-03-02T01:38:24.007Z,28.30
2024-03-02T01:46:47.241Z,28.00
2024-03-02T01:55:10.384Z,31.20
2024-03-02T02:03:35.339Z,28.30
2024-03-02T02:11:58.333Z,29.70
2024-03-02T02:20:21.272Z,29.80
2024-03-02T02:28:48.364Z,28.20
2024-03-02T02:37:11.571Z,29.80
2024-03-02T02:45:34.466Z,29.10
2024-03-02T02:53:57.464Z,31.10
2024-03-02T03:02:20.424Z,29.10
2024-03-02T03:10:44.064Z,29.40
2024-03-02T03:19:07.052Z,28.60
2024-03-02T03:27:30.160Z,29.40
2024-03-02T03:35:54.195Z,29.50
2024-03-02T03:44:17.114Z,30.50
2024-03-02T03:52:39.931Z,29.70
2024-03-02T04:01:03.001Z,30.30
2024-03-02T04:09:26.845Z,30.60
2024-03-02T04:17:50.167Z,26.60
2024-03-02T04:26:13.204Z,29.00
2024-03-02T04:34:36.070Z,27.00
2024-03-02T04:43:00.443Z,28.10
2024-03-02T04:51:23.514Z,27.30
2024-03-02T04:59:46.704Z,27.10
2024-03-02T05:08:09.595Z,26.40
2024-03-02T05:16:39.700Z,24.20
2024-03-02T05:25:04.118Z,20.60
2024-03-02T05:33:27.338Z,24.60
2024-03-02T05:41:50.338Z,23.60
2024-03-02T05:50:13.453Z,23.70
2024-03-02T05:58:56.821Z,23.70
2024-03-02T06:07:20.149Z,25.80
2024-03-02T06:15:43.152Z,24.40
2024-03-02T06:24:06.723Z,24.80
2024-03-02T06:32:29.935Z,25.40
2024-03-02T06:40:53.408Z,22.50
2024-03-02T06:49:16.353Z,21.60
2024-03-02T06:57:39.254Z,23.70
2024-03-02T07:06:02.178Z,21.60
2024-03-02T07:14:45.119Z,21.30
2024-03-02T07:23:08.021Z,24.30
2024-03-02T07:31:31.110Z,20.50
2024-03-02T07:39:54.097Z,23.70
2024-03-02T07:48:17.288Z,21.30
2024-03-02T07:56:40.390Z,20.70
2024-03-02T08:05:03.356Z,18.80
2024-03-02T08:13:26.199Z,20.40
2024-03-02T08:21:49.193Z,22.80
2024-03-02T08:30:13.360Z,21.20
2024-03-02T08:38:36.304Z,21.80
2024-03-02T08:47:00.061Z,23.40
2024-03-02T08:55:23.050Z,24.20
2024-03-02T09:03:47.102Z,25.00
2024-03-02T09:12:10.597Z,24.60
2024-03-02T09:20:33.597Z,23.40
2024-03-02T09:28:56.613Z,24.80
2024-03-02T09:37:19.517Z,25.90
2024-03-02T09:45:42.694Z,24.20
2024-03-02T09:54:17.548Z,28.60
2024-03-02T10:02:45.393Z,28.90
2024-03-02T10:11:08.525Z,26.40
2024-03-02T10:19:36.230Z,25.00
2024-03-02T10:28:00.969Z,27.60
2024-03-02T10:36:24.119Z,29.00
2024-03-02T10:44:48.007Z,25.00
2024-03-02T10:53:11.903Z,24.40
2024-03-02T11:01:35.883Z,22.60
2024-03-02T11:10:10.122Z,22.80
2024-03-02T11:18:34.593Z,23.60
2024-03-02T11:26:59.110Z,24.20
2024-03-02T11:35:22.194Z,23.20
2024-03-02T11:43:45.865Z,21.80
2024-03-02T11:52:11.080Z,22.50
2024-03-02T12:00:34.741Z,23.30
2024-03-02T12:08:57.787Z,24.00
2024-03-02T12:17:20.888Z,24.50
2024-03-02T12:25:44.499Z,27.20
2024-03-02T12:34:08.399Z,23.90
2024-03-02T12:42:31.404Z,25.30
2024-03-02T12:50:54.574Z,24.90
2024-03-02T12:59:25.178Z,21.50
2024-03-02T13:07:49.609Z,25.90
2024-03-02T13:16:14.024Z,29.70
2024-03-02T13:24:37.730Z,25.20
2024-03-02T13:33:00.840Z,21.90
2024-03-02T13:41:23.929Z,24.20
2024-03-02T13:49:48.338Z,24.00
2024-03-02T13:58:12.201Z,23.90
2024-03-02T14:06:35.877Z,20.10
2024-03-02T14:15:03.591Z,24.00
2024-03-02T14:23:27.331Z,23.50
2024-03-02T14:31:50.525Z,25.10
2024-03-02T14:40:14.394Z,25.00
2024-03-02T14:48:39.234Z,27.50
2024-03-02T14:57:04.081Z,27.70
2024-03-02T15:05:27.937Z,23.40
2024-03-02T15:13:51.412Z,24.80
2024-03-02T15:22:14.781Z,29.40
2024-03-02T15:30:37.901Z,24.80
2024-03-02T15:39:02.076Z,25.00
2024-03-02T15:47:25.154Z,26.70
2024-03-02T15:55:48.410Z,27.50
2024-03-02T16:04:11.897Z,26.90
2024-03-02T16:12:35.030Z,29.50
2024-03-02T16:20:58.483Z,25.30
2024-03-02T16:29:23.845Z,38.20
2024-03-02T16:37:48.957Z,27.10
2024-03-02T16:46:13.837Z,27.90
2024-03-02T16:54:38.177Z,28.80
2024-03-02T17:03:03.389Z,32.00
2024-03-02T17:11:27.394Z,25.40
2024-03-02T17:19:52.351Z,29.50
2024-03-02T17:28:30.589Z,32.20
2024-03-02T17:37:00.307Z,27.90
2024-03-02T17:45:27.277Z,33.30
2024-03-02T17:53:53.912Z,29.40
2024-03-02T18:02:17.713Z,28.20
2024-03-02T18:10:41.355Z,30.70
2024-03-02T18:19:08.663Z,32.90
2024-03-02T18:27:36.790Z,28.00
2024-03-02T18:36:01.685Z,35.20
2024-03-02T18:44:25.764Z,34.70
2024-03-02T18:52:51.318Z,33.40
2024-03-02T19:01:16.285Z,28.40
2024-03-02T19:09:39.315Z,32.10
2024-03-02T19:18:02.568Z,23.90
2024-03-02T19:26:29.558Z,25.40
2024-03-02T19:34:53.832Z,27.80
2024-03-02T19:43:19.111Z,26.30
2024-03-02T19:51:43.595Z,27.60
2024-03-02T20:00:11.476Z,26.10
2024-03-02T20:08:34.554Z,24.10
2024-03-02T20:17:00.518Z,23.50
2024-03-02T20:25:23.819Z,21.40
2024-03-02T20:33:50.646Z,20.40
2024-03-02T20:42:16.998Z,20.60
2024-03-02T20:50:40.554Z,22.60
2024-03-02T20:59:04.529Z,18.80
2024-03-02T21:07:27.948Z,19.80
2024-03-02T21:15:55.619Z,20.40
2024-03-02T21:24:18.605Z,19.30
2024-03-02T21:32:41.616Z,19.10
2024-03-02T21:41:04.759Z,20.40
2024-03-02T21:49:27.676Z,18.10
2024-03-02T21:57:50.875Z,19.80
2024-03-02T22:06:14.982Z,17.90
2024-03-02T22:14:38.951Z,18.30
2024-03-02T22:23:01.810Z,19.50
2024-03-02T22:31:24.813Z,18.40
2024-03-02T22:39:48.102Z,17.00
2024-03-02T22:48:11.389Z,17.40
2024-03-02T22:56:34.312Z,17.60
2024-03-02T23:04:57.171Z,18.10
2024-03-02T23:13:20.340Z,16.10
2024-03-02T23:21:43.891Z,16.80
2024-03-02T23:30:07.520Z,18.30
2024-03-02T23:38:30.623Z,18.50
2024-03-02T23:46:53.820Z,17.00
2024-03-02T23:55:16.770Z,17.60
